createdAt,value
2018-08-12T00:00:55.749Z,101651.22
2018-08-12T00:03:25.000Z,101654.96
2018-08-12T00:05:53.941Z,101648.25
2018-08-12T00:08:22.843Z,101651.83
2018-08-12T00:10:51.735Z,101646.09
2018-08-12T00:13:20.637Z,101645.28
2018-08-12T00:15:49.553Z,101645.40
2018-08-12T00:18:18.501Z,101635.41
2018-08-12T00:20:47.382Z,101639.55
2018-08-12T00:23:16.269Z,101629.46
2018-08-12T00:25:45.170Z,101625.91
2018-08-12T00:28:14.095Z,101623.83
2018-08-12T00:30:43.002Z,101621.55
2018-08-12T00:33:13.015Z,101627.00
2018-08-12T00:35:41.930Z,101621.56
2018-08-12T00:38:10.814Z,101617.38
2018-08-12T00:40:39.728Z,101618.95
2018-08-12T00:43:08.625Z,101611.38
2018-08-12T00:45:37.529Z,101614.15
2018-08-12T00:48:06.464Z,101610.83
2018-08-12T00:50:35.334Z,101613.30
2018-08-12T00:53:04.227Z,101609.97
2018-08-12T00:55:33.259Z,101607.19
2018-08-12T00:58:02.179Z,101607.25
2018-08-12T01:00:31.061Z,101608.73
2018-08-12T01:03:00.030Z,101612.31
2018-08-12T01:05:28.874Z,101607.31
2018-08-12T01:07:57.905Z,101610.78
2018-08-12T01:10:26.818Z,101607.55
2018-08-12T01:12:55.727Z,101605.17
2018-08-12T01:15:24.643Z,101606.50
2018-08-12T01:17:53.601Z,101601.03
2018-08-12T01:20:24.121Z,101603.54
2018-08-12T01:22:53.002Z,101598.31
2018-08-12T01:25:22.237Z,101590.13
2018-08-12T01:27:52.186Z,101596.52
2018-08-12T01:30:22.066Z,101593.20
2018-08-12T01:32:50.944Z,101592.08
2018-08-12T01:35:19.914Z,101590.00
2018-08-12T01:37:49.451Z,101589.48
2018-08-12T01:40:19.119Z,101585.41
2018-08-12T01:42:48.059Z,101584.75
2018-08-12T01:45:18.476Z,101582.77
2018-08-12T01:47:47.413Z,101576.41
2018-08-12T01:50:17.518Z,101575.61
2018-08-12T01:52:46.568Z,101570.52
2018-08-12T01:55:15.839Z,101566.49
2018-08-12T01:57:44.739Z,101564.89
2018-08-12T02:00:18.947Z,101560.30
2018-08-12T02:02:48.318Z,101556.00
2018-08-12T02:05:17.594Z,101549.86
2018-08-12T02:07:46.532Z,101553.91
2018-08-12T02:10:15.451Z,101548.92
2018-08-12T02:12:44.369Z,101545.16
2018-08-12T02:15:13.351Z,101546.75
2018-08-12T02:17:42.590Z,101544.73
2018-08-12T02:20:12.221Z,101542.81
2018-08-12T02:22:41.556Z,101537.45
2018-08-12T02:25:11.225Z,101533.24
2018-08-12T02:27:40.187Z,101527.59
2018-08-12T02:30:10.850Z,101529.33
2018-08-12T02:32:39.972Z,101529.84
2018-08-12T02:35:09.255Z,101531.42
2018-08-12T02:37:38.172Z,101517.20
2018-08-12T02:40:08.097Z,101518.59
2018-08-12T02:42:36.953Z,101509.80
2018-08-12T02:45:08.945Z,101506.58
2018-08-12T02:47:37.837Z,101502.21
2018-08-12T02:50:06.909Z,101498.89
2018-08-12T02:52:36.401Z,101498.25
2018-08-12T02:55:06.164Z,101491.97
2018-08-12T02:57:35.057Z,101488.30
2018-08-12T03:00:05.968Z,101491.19
2018-08-12T03:02:34.848Z,101484.89
2018-08-12T03:05:04.049Z,101482.55
2018-08-12T03:07:33.072Z,101480.09
2018-08-12T03:10:01.955Z,101479.27
2018-08-12T03:12:30.844Z,101475.84
2018-08-12T03:14:59.780Z,101464.39
2018-08-12T03:17:28.678Z,101476.09
2018-08-12T03:19:57.584Z,101461.70
2018-08-12T03:22:26.627Z,101464.95
2018-08-12T03:24:55.430Z,101454.37
2018-08-12T03:27:24.330Z,101445.21
2018-08-12T03:29:53.212Z,101450.16
2018-08-12T03:32:22.107Z,101440.20
2018-08-12T03:34:51.106Z,101442.45
2018-08-12T03:37:20.039Z,101445.81
2018-08-12T03:39:48.956Z,101442.30
2018-08-12T03:42:17.854Z,101444.95
2018-08-12T03:44:46.753Z,101442.12
2018-08-12T03:47:15.651Z,101449.89
2018-08-12T03:49:44.597Z,101446.68
2018-08-12T03:52:13.470Z,101444.95
2018-08-12T03:54:42.369Z,101442.80
2018-08-12T03:57:11.270Z,101447.53
2018-08-12T03:59:40.165Z,101447.69
2018-08-12T04:02:09.086Z,101437.78
2018-08-12T04:04:38.147Z,101441.25
2018-08-12T04:07:07.112Z,101440.17
2018-08-12T04:09:35.997Z,101440.14
2018-08-12T04:12:04.923Z,101436.73
2018-08-12T04:14:33.863Z,101433.72
2018-08-12T04:17:02.781Z,101430.08
2018-08-12T04:19:31.974Z,101436.02
2018-08-12T04:22:01.263Z,101430.78
2018-08-12T04:24:30.184Z,101424.91
2018-08-12T04:26:59.135Z,101424.97
2018-08-12T04:29:28.403Z,101425.55
2018-08-12T04:31:57.702Z,101424.56
2018-08-12T04:34:26.956Z,101417.98
2018-08-12T04:36:56.049Z,101417.38
2018-08-12T04:39:24.953Z,101411.81
2018-08-12T04:41:53.855Z,101409.70
2018-08-12T04:44:22.740Z,101409.14
2018-08-12T04:46:51.692Z,101412.28
2018-08-12T04:49:20.591Z,101413.82
2018-08-12T04:51:49.469Z,101411.41
2018-08-12T04:54:18.519Z,101406.49
2018-08-12T04:56:47.428Z,101409.14
2018-08-12T04:59:16.540Z,101411.61
2018-08-12T05:01:45.552Z,101413.48
2018-08-12T05:04:14.430Z,101406.33
2018-08-12T05:06:43.384Z,101409.05
2018-08-12T05:09:12.685Z,101412.13
2018-08-12T05:11:41.579Z,101405.48
2018-08-12T05:14:10.455Z,101408.85
2018-08-12T05:16:39.360Z,101410.11
2018-08-12T05:19:08.273Z,101411.97
2018-08-12T05:21:37.196Z,101410.30
2018-08-12T05:24:07.166Z,101410.72
2018-08-12T05:26:36.131Z,101409.94
2018-08-12T05:29:05.110Z,101408.77
2018-08-12T05:31:34.063Z,101408.19
2018-08-12T05:34:03.081Z,101410.14
2018-08-12T05:36:33.030Z,101405.48
2018-08-12T05:39:01.897Z,101401.08
2018-08-12T05:41:30.794Z,101395.87
2018-08-12T05:43:59.743Z,101391.59
2018-08-12T05:46:28.616Z,101385.78
2018-08-12T05:48:57.532Z,101381.33
2018-08-12T05:51:27.475Z,101380.70
2018-08-12T05:53:57.266Z,101379.77
2018-08-12T05:56:26.197Z,101379.34
2018-08-12T05:58:55.081Z,101373.60
2018-08-12T06:01:24.117Z,101370.77
2018-08-12T06:03:53.062Z,101376.44
2018-08-12T06:06:21.946Z,101377.07
2018-08-12T06:08:50.856Z,101377.11
2018-08-12T06:11:19.979Z,101368.70
2018-08-12T06:13:48.954Z,101364.55
2018-08-12T06:16:17.949Z,101365.39
2018-08-12T06:18:46.849Z,101367.53
2018-08-12T06:21:15.756Z,101359.47
2018-08-12T06:23:44.668Z,101359.69
2018-08-12T06:26:13.522Z,101358.96
2018-08-12T06:28:42.437Z,101352.73
2018-08-12T06:31:11.345Z,101345.58
2018-08-12T06:33:40.252Z,101347.61
2018-08-12T06:36:09.185Z,101348.98
2018-08-12T06:38:38.034Z,101355.84
2018-08-12T06:41:06.979Z,101354.58
2018-08-12T06:43:35.921Z,101355.55
2018-08-12T06:46:04.804Z,101357.14
2018-08-12T06:48:33.715Z,101358.41
2018-08-12T06:51:02.656Z,101366.63
2018-08-12T06:53:31.574Z,101361.38
2018-08-12T06:56:00.475Z,101362.70
2018-08-12T06:58:29.357Z,101362.94
2018-08-12T07:00:59.322Z,101366.22
2018-08-12T07:03:28.257Z,101359.11
2018-08-12T07:05:57.133Z,101353.41
2018-08-12T07:08:26.021Z,101346.64
2018-08-12T07:10:54.973Z,101348.03
2018-08-12T07:13:24.029Z,101349.34
2018-08-12T07:15:52.909Z,101349.31
2018-08-12T07:18:21.819Z,101346.94
2018-08-12T07:20:50.705Z,101348.44
2018-08-12T07:23:19.711Z,101348.16
2018-08-12T07:25:48.617Z,101346.97
2018-08-12T07:28:17.545Z,101344.81
2018-08-12T07:30:46.493Z,101350.48
2018-08-12T07:33:15.409Z,101342.55
2018-08-12T07:35:44.300Z,101334.71
2018-08-12T07:38:13.198Z,101338.61
2018-08-12T07:40:42.128Z,101339.44
2018-08-12T07:43:11.004Z,101333.51
2018-08-12T07:45:39.906Z,101329.22
2018-08-12T07:48:08.804Z,101337.75
2018-08-12T07:50:37.697Z,101325.81
2018-08-12T07:53:06.645Z,101328.58
2018-08-12T07:55:35.619Z,101326.19
2018-08-12T07:58:04.415Z,101324.30
2018-08-12T08:00:33.299Z,101322.96
2018-08-12T08:03:02.208Z,101328.70
2018-08-12T08:05:31.093Z,101318.94
2018-08-12T08:08:00.066Z,101319.53
2018-08-12T08:10:29.025Z,101314.59
2018-08-12T08:12:57.912Z,101315.20
2018-08-12T08:15:26.944Z,101305.11
2018-08-12T08:17:55.856Z,101306.27
2018-08-12T08:20:24.757Z,101306.29
2018-08-12T08:22:53.668Z,101302.25
2018-08-12T08:25:22.712Z,101303.35
2018-08-12T08:27:52.616Z,101303.91
2018-08-12T08:30:21.514Z,101306.40
2018-08-12T08:32:50.429Z,101308.86
2018-08-12T08:35:19.347Z,101305.58
2018-08-12T08:37:48.242Z,101309.15
2018-08-12T08:40:17.701Z,101308.06
2018-08-12T08:42:46.894Z,101309.16
2018-08-12T08:45:19.090Z,101305.34
2018-08-12T08:47:49.100Z,101297.95
2018-08-12T08:50:19.297Z,101302.85
2018-08-12T08:52:48.182Z,101299.03
2018-08-12T08:55:17.397Z,101288.38
2018-08-12T08:57:46.834Z,101287.02
2018-08-12T09:00:18.478Z,101284.84
2018-08-12T09:02:49.815Z,101276.84
2018-08-12T09:05:19.095Z,101276.55
2018-08-12T09:07:48.231Z,101267.47
2018-08-12T09:10:18.149Z,101271.53
2018-08-12T09:12:47.125Z,101266.84
2018-08-12T09:15:17.719Z,101260.50
2018-08-12T09:17:47.123Z,101263.19
2018-08-12T09:20:18.275Z,101255.98
2018-08-12T09:22:47.199Z,101258.65
2018-08-12T09:25:16.279Z,101253.44
2018-08-12T09:27:45.184Z,101250.05
2018-08-12T09:30:19.036Z,101246.50
2018-08-12T09:32:48.083Z,101251.70
2018-08-12T09:35:16.966Z,101248.38
2018-08-12T09:37:45.881Z,101247.83
2018-08-12T09:40:15.974Z,101239.02
2018-08-12T09:42:45.873Z,101240.05
2018-08-12T09:45:17.442Z,101237.24
2018-08-12T09:47:46.485Z,101228.09
2018-08-12T09:50:16.449Z,101234.17
2018-08-12T09:52:45.906Z,101226.70
2018-08-12T09:55:15.263Z,101222.22
2018-08-12T09:57:44.153Z,101220.82
2018-08-12T10:00:20.446Z,101217.38
2018-08-12T10:02:50.377Z,101212.94
2018-08-12T10:05:19.561Z,101211.43
2018-08-12T10:07:48.457Z,101212.80
2018-08-12T10:10:17.748Z,101204.69
2018-08-12T10:12:46.941Z,101205.91
2018-08-12T10:15:16.363Z,101202.06
2018-08-12T10:17:47.289Z,101207.07
2018-08-12T10:20:16.277Z,101205.03
2018-08-12T10:22:45.222Z,101195.19
2018-08-12T10:25:14.119Z,101196.80
2018-08-12T10:27:43.103Z,101187.78
2018-08-12T10:30:13.213Z,101171.51
2018-08-12T10:32:42.122Z,101173.24
2018-08-12T10:35:12.457Z,101170.84
2018-08-12T10:37:41.845Z,101165.20
2018-08-12T10:40:12.932Z,101163.53
2018-08-12T10:42:42.057Z,101159.92
2018-08-12T10:45:11.757Z,101163.77
2018-08-12T10:47:40.891Z,101161.61
2018-08-12T10:50:13.016Z,101156.23
2018-08-12T10:52:43.112Z,101157.98
2018-08-12T10:55:12.898Z,101154.44
2018-08-12T10:57:41.933Z,101152.48
2018-08-12T11:00:18.266Z,101151.84
2018-08-12T11:02:47.759Z,101148.02
2018-08-12T11:05:17.086Z,101155.61
2018-08-12T11:07:47.983Z,101147.20
2018-08-12T11:10:16.935Z,101149.16
2018-08-12T11:12:45.916Z,101147.55
2018-08-12T11:15:14.865Z,101147.10
2018-08-12T11:17:43.764Z,101143.40
2018-08-12T11:20:12.689Z,101134.22
2018-08-12T11:22:41.599Z,101133.77
2018-08-12T11:25:11.623Z,101132.04
2018-08-12T11:27:40.580Z,101132.66
2018-08-12T11:30:13.457Z,101126.06
2018-08-12T11:32:42.454Z,101114.67
2018-08-12T11:35:12.837Z,101115.36
2018-08-12T11:37:43.290Z,101103.09
2018-08-12T11:40:13.179Z,101099.62
2018-08-12T11:42:42.152Z,101108.94
2018-08-12T11:45:15.030Z,101101.77
2018-08-12T11:47:44.374Z,101102.93
2018-08-12T11:50:13.821Z,101092.64
2018-08-12T11:52:43.552Z,101088.23
2018-08-12T11:55:13.648Z,101085.14
2018-08-12T11:57:42.527Z,101078.63
2018-08-12T12:00:15.039Z,101084.13
2018-08-12T12:02:44.823Z,101069.67
2018-08-12T12:05:14.100Z,101065.83
2018-08-12T12:07:43.133Z,101071.02
2018-08-12T12:10:14.460Z,101068.39
2018-08-12T12:12:44.443Z,101061.92
2018-08-12T12:15:14.294Z,101060.61
2018-08-12T12:17:43.728Z,101060.77
2018-08-12T12:20:13.314Z,101055.38
2018-08-12T12:22:42.887Z,101052.17
2018-08-12T12:25:12.964Z,101052.62
2018-08-12T12:27:41.825Z,101048.17
2018-08-12T12:30:13.530Z,101030.58
2018-08-12T12:32:43.171Z,101033.46
2018-08-12T12:35:12.124Z,101031.52
2018-08-12T12:37:41.415Z,101022.44
2018-08-12T12:40:12.219Z,101016.25
2018-08-12T12:42:41.245Z,101016.70
2018-08-12T12:45:11.481Z,101015.57
2018-08-12T12:47:40.622Z,101004.57
2018-08-12T12:50:15.046Z,101003.98
2018-08-12T12:52:43.964Z,101008.16
2018-08-12T12:55:12.900Z,101001.48
2018-08-12T12:57:41.824Z,100998.80
2018-08-12T13:00:12.539Z,100995.81
2018-08-12T13:02:41.416Z,100994.33
2018-08-12T13:05:12.105Z,100990.63
2018-08-12T13:07:41.084Z,100979.37
2018-08-12T13:10:10.570Z,100969.64
2018-08-12T13:12:40.137Z,100973.06
2018-08-12T13:15:10.177Z,100974.45
2018-08-12T13:17:39.472Z,100967.47
2018-08-12T13:20:10.426Z,100974.64
2018-08-12T13:22:39.316Z,100964.14
2018-08-12T13:25:11.699Z,100957.38
2018-08-12T13:27:42.066Z,100960.48
2018-08-12T13:30:11.921Z,100950.26
2018-08-12T13:32:41.910Z,100944.45
2018-08-12T13:35:10.808Z,100934.88
2018-08-12T13:37:39.697Z,100932.72
2018-08-12T13:40:10.700Z,100927.59
2018-08-12T13:42:40.231Z,100924.13
2018-08-12T13:45:11.164Z,100917.52
2018-08-12T13:47:41.281Z,100915.79
2018-08-12T13:50:13.365Z,100911.85
2018-08-12T13:52:42.305Z,100906.42
2018-08-12T13:55:11.263Z,100903.64
2018-08-12T13:57:40.220Z,100897.38
2018-08-12T14:00:11.167Z,100891.69
2018-08-12T14:02:41.606Z,100885.69
2018-08-12T14:05:11.282Z,100877.23
2018-08-12T14:07:40.233Z,100866.19
2018-08-12T14:10:10.206Z,100865.38
2018-08-12T14:12:39.384Z,100864.19
2018-08-12T14:15:11.075Z,100864.39
2018-08-12T14:17:40.739Z,100869.48
2018-08-12T14:20:10.721Z,100866.55
2018-08-12T14:22:39.823Z,100859.52
2018-08-12T14:25:09.235Z,100850.86
2018-08-12T14:27:38.572Z,100853.05
2018-08-12T14:30:11.058Z,100847.84
2018-08-12T14:32:39.962Z,100843.04
2018-08-12T14:35:09.135Z,100842.27
2018-08-12T14:37:38.702Z,100835.25
2018-08-12T14:40:08.699Z,100824.06
2018-08-12T14:42:37.682Z,100822.50
2018-08-12T14:45:07.805Z,100820.31
2018-08-12T14:47:37.074Z,100823.08
2018-08-12T14:50:07.679Z,100813.25
2018-08-12T14:52:36.618Z,100805.22
2018-08-12T14:55:06.625Z,100798.93
2018-08-12T14:57:35.652Z,100792.45
2018-08-12T15:00:05.278Z,100786.45
2018-08-12T15:02:34.154Z,100793.42
2018-08-12T15:05:03.207Z,100776.14
2018-08-12T15:07:32.106Z,100779.53
2018-08-12T15:10:01.042Z,100780.53
2018-08-12T15:12:29.953Z,100773.84
2018-08-12T15:14:58.865Z,100782.73
2018-08-12T15:17:27.833Z,100773.47
2018-08-12T15:19:56.854Z,100776.45
2018-08-12T15:22:25.841Z,100765.89
2018-08-12T15:24:54.720Z,100760.27
2018-08-12T15:27:23.651Z,100761.08
2018-08-12T15:29:53.758Z,100757.23
2018-08-12T15:32:22.647Z,100755.34
2018-08-12T15:34:51.558Z,100753.81
2018-08-12T15:37:20.528Z,100752.86
2018-08-12T15:39:49.502Z,100753.17
2018-08-12T15:42:18.541Z,100753.80
2018-08-12T15:44:47.445Z,100765.59
2018-08-12T15:47:16.540Z,100751.88
2018-08-12T15:49:45.963Z,100745.52
2018-08-12T15:52:14.859Z,100749.66
2018-08-12T15:54:44.019Z,100749.31
2018-08-12T15:57:13.389Z,100743.10
2018-08-12T15:59:42.297Z,100738.70
2018-08-12T16:02:11.192Z,100726.86
2018-08-12T16:04:40.106Z,100734.45
2018-08-12T16:07:10.032Z,100729.75
2018-08-12T16:09:38.924Z,100722.92
2018-08-12T16:12:08.886Z,100716.52
2018-08-12T16:14:37.841Z,100716.17
2018-08-12T16:17:07.056Z,100715.39
2018-08-12T16:19:35.987Z,100714.72
2018-08-12T16:22:04.965Z,100710.89
2018-08-12T16:24:33.862Z,100706.41
2018-08-12T16:27:02.805Z,100699.64
2018-08-12T16:29:31.701Z,100711.69
2018-08-12T16:32:00.619Z,100704.33
2018-08-12T16:34:29.521Z,100700.91
2018-08-12T16:36:58.447Z,100699.89
2018-08-12T16:39:27.472Z,100691.83
2018-08-12T16:41:56.338Z,100688.19
2018-08-12T16:44:25.295Z,100675.66
2018-08-12T16:46:54.173Z,100671.50
2018-08-12T16:49:23.279Z,100672.91
2018-08-12T16:51:52.124Z,100660.97
2018-08-12T16:54:20.974Z,100660.41
2018-08-12T16:56:50.015Z,100658.11
2018-08-12T16:59:18.890Z,100652.44
2018-08-12T17:01:47.865Z,100660.48
2018-08-12T17:04:16.922Z,100654.73
2018-08-12T17:06:45.734Z,100652.06
2018-08-12T17:09:14.568Z,100651.66
2018-08-12T17:11:43.698Z,100649.67
2018-08-12T17:14:12.669Z,100652.70
2018-08-12T17:16:41.686Z,100643.47
2018-08-12T17:19:10.674Z,100635.38
2018-08-12T17:21:39.684Z,100636.16
2018-08-12T17:24:08.707Z,100628.67
2018-08-12T17:26:37.767Z,100626.98
2018-08-12T17:29:06.891Z,100622.60
2018-08-12T17:31:35.955Z,100621.82
2018-08-12T17:34:04.915Z,100616.61
2018-08-12T17:36:33.871Z,100616.77
2018-08-12T17:39:02.746Z,100618.23
2018-08-12T17:41:31.675Z,100618.39
2018-08-12T17:44:01.909Z,100611.62
2018-08-12T17:46:30.798Z,100613.56
2018-08-12T17:48:59.721Z,100615.27
2018-08-12T17:51:28.645Z,100607.50
2018-08-12T17:53:59.749Z,100605.41
2018-08-12T17:56:29.114Z,100607.50
2018-08-12T17:58:58.357Z,100605.74
2018-08-12T18:01:27.262Z,100602.86
2018-08-12T18:03:56.167Z,100600.61
2018-08-12T18:06:25.061Z,100600.86
2018-08-12T18:08:53.934Z,100607.41
2018-08-12T18:11:22.892Z,100605.36
2018-08-12T18:13:51.771Z,100601.55
2018-08-12T18:16:20.664Z,100605.53
2018-08-12T18:18:49.561Z,100608.92
2018-08-12T18:21:18.422Z,100607.27
2018-08-12T18:23:47.330Z,100615.47
2018-08-12T18:26:17.352Z,100604.97
2018-08-12T18:28:46.252Z,100602.30
2018-08-12T18:31:15.126Z,100598.64
2018-08-12T18:33:44.072Z,100598.47
2018-08-12T18:36:12.927Z,100596.41
2018-08-12T18:38:41.876Z,100595.97
2018-08-12T18:41:10.783Z,100591.52
2018-08-12T18:43:39.627Z,100596.27
2018-08-12T18:46:08.537Z,100594.89
2018-08-12T18:48:37.460Z,100599.16
2018-08-12T18:51:06.424Z,100594.70
2018-08-12T18:53:35.417Z,100597.34
2018-08-12T18:56:04.344Z,100596.91
2018-08-12T18:58:33.219Z,100594.88
2018-08-12T19:01:02.112Z,100602.44
2018-08-12T19:03:31.045Z,100603.01
2018-08-12T19:05:59.955Z,100596.45
2018-08-12T19:08:28.909Z,100598.77
2018-08-12T19:10:58.812Z,100592.86
2018-08-12T19:13:27.696Z,100596.16
2018-08-12T19:15:56.623Z,100601.44
2018-08-12T19:18:25.496Z,100595.27
2018-08-12T19:20:54.391Z,100595.02
2018-08-12T19:23:23.377Z,100598.09
2018-08-12T19:25:52.287Z,100595.22
2018-08-12T19:28:21.174Z,100597.36
2018-08-12T19:30:50.089Z,100595.54
2018-08-12T19:33:18.993Z,100597.94
2018-08-12T19:35:47.866Z,100596.78
2018-08-12T19:38:16.825Z,100592.38
2018-08-12T19:40:45.725Z,100596.17
2018-08-12T19:43:14.625Z,100594.05
2018-08-12T19:45:43.516Z,100594.24
2018-08-12T19:48:12.454Z,100601.45
2018-08-12T19:50:41.388Z,100600.50
2018-08-12T19:53:10.603Z,100595.55
2018-08-12T19:55:39.480Z,100599.19
2018-08-12T19:58:08.369Z,100591.23
2018-08-12T20:00:37.369Z,100582.94
2018-08-12T20:03:06.733Z,100588.82
2018-08-12T20:05:35.630Z,100586.54
2018-08-12T20:08:04.528Z,100583.28
2018-08-12T20:10:33.463Z,100586.06
2018-08-12T20:13:02.350Z,100585.63
2018-08-12T20:15:31.217Z,100591.38
2018-08-12T20:18:00.146Z,100585.10
2018-08-12T20:20:29.033Z,100586.03
2018-08-12T20:22:57.983Z,100591.41
2018-08-12T20:25:26.888Z,100594.47
2018-08-12T20:27:55.810Z,100588.26
2018-08-12T20:30:24.682Z,100586.94
2018-08-12T20:32:53.581Z,100577.84
2018-08-12T20:35:22.476Z,100573.42
2018-08-12T20:37:51.390Z,100575.31
2018-08-12T20:40:20.289Z,100570.50
2018-08-12T20:42:49.214Z,100565.66
2018-08-12T20:45:18.056Z,100562.66
2018-08-12T20:47:46.944Z,100562.27
2018-08-12T20:50:15.907Z,100558.90
2018-08-12T20:52:44.769Z,100553.68
2018-08-12T20:55:13.645Z,100560.62
2018-08-12T20:57:42.591Z,100557.94
2018-08-12T21:00:11.585Z,100561.22
2018-08-12T21:02:40.499Z,100558.56
2018-08-12T21:05:09.403Z,100551.31
2018-08-12T21:07:40.397Z,100554.05
2018-08-12T21:10:09.350Z,100548.48
2018-08-12T21:12:38.252Z,100549.63
2018-08-12T21:15:07.144Z,100549.72
2018-08-12T21:17:36.136Z,100550.34
2018-08-12T21:20:05.777Z,100548.17
2018-08-12T21:22:34.648Z,100541.80
2018-08-12T21:25:03.564Z,100537.20
2018-08-12T21:27:33.523Z,100532.41
2018-08-12T21:30:02.470Z,100532.14
2018-08-12T21:32:31.373Z,100521.40
2018-08-12T21:35:00.305Z,100530.17
2018-08-12T21:37:29.230Z,100524.30
2018-08-12T21:39:58.135Z,100521.27
2018-08-12T21:42:27.100Z,100517.16
2018-08-12T21:44:55.998Z,100514.02
2018-08-12T21:47:24.905Z,100517.25
2018-08-12T21:49:53.828Z,100515.42
2018-08-12T21:52:22.697Z,100514.06
2018-08-12T21:54:51.598Z,100519.20
2018-08-12T21:57:20.496Z,100511.05
2018-08-12T21:59:49.439Z,100509.65
2018-08-12T22:02:18.290Z,100509.18
2018-08-12T22:04:47.203Z,100502.11
2018-08-12T22:07:17.126Z,100502.38
2018-08-12T22:09:46.056Z,100499.22
2018-08-12T22:12:14.965Z,100501.98
2018-08-12T22:14:43.877Z,100504.48
2018-08-12T22:17:12.798Z,100500.28
2018-08-12T22:19:41.880Z,100494.81
2018-08-12T22:22:10.798Z,100486.95
2018-08-12T22:24:39.687Z,100492.34
2018-08-12T22:27:08.631Z,100490.18
2018-08-12T22:29:37.511Z,100488.24
2018-08-12T22:32:06.653Z,100493.48
2018-08-12T22:34:35.912Z,100486.20
2018-08-12T22:37:05.011Z,100484.39
2018-08-12T22:39:33.989Z,100479.44
2018-08-12T22:42:02.878Z,100481.90
2018-08-12T22:44:31.821Z,100479.97
2018-08-12T22:47:00.707Z,100477.53
2018-08-12T22:49:29.609Z,100479.58
2018-08-12T22:51:58.494Z,100479.17
2018-08-12T22:54:27.421Z,100481.93
2018-08-12T22:56:56.327Z,100480.23
2018-08-12T22:59:25.326Z,100480.39
2018-08-12T23:01:54.226Z,100480.39
2018-08-12T23:04:23.149Z,100469.31
2018-08-12T23:06:52.033Z,100467.56
2018-08-12T23:09:20.932Z,100471.42
2018-08-12T23:11:49.813Z,100466.45
2018-08-12T23:14:18.685Z,100467.68
2018-08-12T23:16:59.025Z,100465.39
2018-08-12T23:19:28.138Z,100463.78
2018-08-12T23:21:57.072Z,100465.16
2018-08-12T23:24:25.976Z,100464.11
2018-08-12T23:26:54.932Z,100451.82
2018-08-12T23:29:23.804Z,100449.36
2018-08-12T23:31:52.727Z,100441.94
2018-08-12T23:34:21.624Z,100444.07
2018-08-12T23:36:50.538Z,100441.07
2018-08-12T23:39:19.426Z,100448.41
2018-08-12T23:41:48.321Z,100435.41
2018-08-12T23:44:17.229Z,100433.28
2018-08-12T23:46:46.108Z,100422.65
2018-08-12T23:49:15.033Z,100422.98
2018-08-12T23:51:43.925Z,100419.38
2018-08-12T23:54:12.836Z,100418.58
2018-08-12T23:56:41.716Z,100415.25
2018-08-12T23:59:10.637Z,100411.85
